Schedule Details


Flight Number: CTN380
Departure: Kastela (LDSP) at 15:55
Arrival: Fiumicino (LIRF) at 17:05
Route: VELUG UZ924 MOPUV

Weather Information
LDSP 191100Z 15003KT 080V220 CAVOK 15/01 Q1019 NOSIG
LIRF 191120Z 24005KT 220V280 8000 FEW010 BKN025 13/11 Q1021 NOSIG
Schedule Frequency

Route Map